sensor_id;sensor_type;location;lat;lon;timestamp;P1;durP1;ratioP1;P2;durP2;ratioP2
51943;SDS011;37969;53.132;6.370;2023-02-10T00:00:07;55.42;;;16.60;;
51943;SDS011;37969;53.132;6.370;2023-02-10T00:02:33;55.10;;;18.30;;
51943;SDS011;37969;53.132;6.370;2023-02-10T00:04:59;76.93;;;16.17;;
51943;SDS011;37969;53.132;6.370;2023-02-10T00:07:25;45.42;;;16.13;;
51943;SDS011;37969;53.132;6.370;2023-02-10T00:09:51;62.22;;;16.85;;
51943;SDS011;37969;53.132;6.370;2023-02-10T00:12:17;59.15;;;17.80;;
51943;SDS011;37969;53.132;6.370;2023-02-10T00:14:44;66.28;;;24.58;;
51943;SDS011;37969;53.132;6.370;2023-02-10T00:17:10;73.72;;;21.70;;
51943;SDS011;37969;53.132;6.370;2023-02-10T00:19:38;54.88;;;18.98;;
51943;SDS011;37969;53.132;6.370;2023-02-10T00:22:04;78.97;;;20.23;;
51943;SDS011;37969;53.132;6.370;2023-02-10T00:24:30;66.05;;;22.02;;
51943;SDS011;37969;53.132;6.370;2023-02-10T00:26:56;68.72;;;21.05;;
51943;SDS011;37969;53.132;6.370;2023-02-10T00:29:22;76.35;;;22.67;;
51943;SDS011;37969;53.132;6.370;2023-02-10T00:31:48;64.60;;;20.70;;
51943;SDS011;37969;53.132;6.370;2023-02-10T00:34:15;58.80;;;18.58;;
51943;SDS011;37969;53.132;6.370;2023-02-10T00:36:42;66.32;;;22.73;;
51943;SDS011;37969;53.132;6.370;2023-02-10T00:39:12;62.30;;;22.55;;
51943;SDS011;37969;53.132;6.370;2023-02-10T00:41:39;68.60;;;19.33;;
51943;SDS011;37969;53.132;6.370;2023-02-10T00:44:05;50.65;;;17.30;;
51943;SDS011;37969;53.132;6.370;2023-02-10T00:46:31;46.28;;;16.60;;
51943;SDS011;37969;53.132;6.370;2023-02-10T00:48:57;62.63;;;17.98;;
51943;SDS011;37969;53.132;6.370;2023-02-10T00:51:24;61.47;;;17.58;;
51943;SDS011;37969;53.132;6.370;2023-02-10T00:53:50;55.15;;;16.48;;
51943;SDS011;37969;53.132;6.370;2023-02-10T00:56:18;55.83;;;17.23;;
51943;SDS011;37969;53.132;6.370;2023-02-10T00:58:44;73.25;;;16.13;;
51943;SDS011;37969;53.132;6.370;2023-02-10T01:01:11;53.15;;;17.20;;
51943;SDS011;37969;53.132;6.370;2023-02-10T01:03:37;54.17;;;15.13;;
51943;SDS011;37969;53.132;6.370;2023-02-10T01:06:03;56.03;;;15.65;;
51943;SDS011;37969;53.132;6.370;2023-02-10T01:08:29;49.55;;;15.25;;
51943;SDS011;37969;53.132;6.370;2023-02-10T01:10:58;60.60;;;15.80;;
51943;SDS011;37969;53.132;6.370;2023-02-10T01:13:24;117.82;;;36.28;;
51943;SDS011;37969;53.132;6.370;2023-02-10T01:15:50;59.38;;;15.45;;
51943;SDS011;37969;53.132;6.370;2023-02-10T01:18:16;56.53;;;15.02;;
51943;SDS011;37969;53.132;6.370;2023-02-10T01:20:42;52.08;;;15.40;;
51943;SDS011;37969;53.132;6.370;2023-02-10T01:23:09;45.10;;;15.55;;
51943;SDS011;37969;53.132;6.370;2023-02-10T01:25:35;54.17;;;15.00;;
51943;SDS011;37969;53.132;6.370;2023-02-10T01:28:02;56.83;;;14.68;;
51943;SDS011;37969;53.132;6.370;2023-02-10T01:30:28;52.90;;;14.80;;
51943;SDS011;37969;53.132;6.370;2023-02-10T01:32:55;54.20;;;13.55;;
51943;SDS011;37969;53.132;6.370;2023-02-10T01:35:21;64.43;;;15.18;;
51943;SDS011;37969;53.132;6.370;2023-02-10T01:37:47;67.47;;;14.68;;
51943;SDS011;37969;53.132;6.370;2023-02-10T01:40:14;45.60;;;11.73;;
51943;SDS011;37969;53.132;6.370;2023-02-10T01:42:40;49.55;;;12.18;;
51943;SDS011;37969;53.132;6.370;2023-02-10T01:45:12;56.22;;;11.80;;
51943;SDS011;37969;53.132;6.370;2023-02-10T01:47:40;38.05;;;13.75;;
51943;SDS011;37969;53.132;6.370;2023-02-10T01:50:06;51.83;;;13.15;;
51943;SDS011;37969;53.132;6.370;2023-02-10T01:52:32;46.13;;;12.02;;
51943;SDS011;37969;53.132;6.370;2023-02-10T01:55:00;47.38;;;14.80;;
51943;SDS011;37969;53.132;6.370;2023-02-10T01:57:28;62.38;;;13.85;;
51943;SDS011;37969;53.132;6.370;2023-02-10T01:59:54;45.72;;;12.90;;
51943;SDS011;37969;53.132;6.370;2023-02-10T02:02:21;56.10;;;16.88;;
51943;SDS011;37969;53.132;6.370;2023-02-10T02:07:13;52.95;;;14.95;;
51943;SDS011;37969;53.132;6.370;2023-02-10T02:09:39;61.58;;;15.60;;
51943;SDS011;37969;53.132;6.370;2023-02-10T02:12:09;52.83;;;14.68;;
51943;SDS011;37969;53.132;6.370;2023-02-10T02:14:45;59.83;;;15.77;;
51943;SDS011;37969;53.132;6.370;2023-02-10T02:22:46;65.05;;;17.33;;
51943;SDS011;37969;53.132;6.370;2023-02-10T02:30:21;59.95;;;16.17;;
51943;SDS011;37969;53.132;6.370;2023-02-10T02:32:54;52.88;;;15.98;;
51943;SDS011;37969;53.132;6.370;2023-02-10T02:35:24;53.55;;;13.13;;
51943;SDS011;37969;53.132;6.370;2023-02-10T02:37:51;70.45;;;18.52;;
51943;SDS011;37969;53.132;6.370;2023-02-10T02:40:18;57.35;;;16.95;;
51943;SDS011;37969;53.132;6.370;2023-02-10T02:42:45;66.70;;;15.52;;
51943;SDS011;37969;53.132;6.370;2023-02-10T02:45:14;58.50;;;14.95;;
51943;SDS011;37969;53.132;6.370;2023-02-10T02:52:43;62.25;;;15.52;;
51943;SDS011;37969;53.132;6.370;2023-02-10T02:55:17;69.72;;;20.60;;
51943;SDS011;37969;53.132;6.370;2023-02-10T02:57:48;50.10;;;18.25;;
51943;SDS011;37969;53.132;6.370;2023-02-10T03:00:17;69.07;;;18.48;;
51943;SDS011;37969;53.132;6.370;2023-02-10T03:02:44;77.45;;;18.63;;
51943;SDS011;37969;53.132;6.370;2023-02-10T03:05:16;60.38;;;14.93;;
51943;SDS011;37969;53.132;6.370;2023-02-10T03:07:42;60.22;;;14.55;;
51943;SDS011;37969;53.132;6.370;2023-02-10T03:10:09;59.38;;;14.77;;
51943;SDS011;37969;53.132;6.370;2023-02-10T03:12:35;54.13;;;13.45;;
51943;SDS011;37969;53.132;6.370;2023-02-10T03:15:01;60.67;;;21.05;;
51943;SDS011;37969;53.132;6.370;2023-02-10T03:17:27;56.00;;;17.27;;
51943;SDS011;37969;53.132;6.370;2023-02-10T03:19:53;65.05;;;17.92;;
51943;SDS011;37969;53.132;6.370;2023-02-10T03:22:19;63.25;;;16.40;;
51943;SDS011;37969;53.132;6.370;2023-02-10T03:24:45;59.17;;;13.60;;
51943;SDS011;37969;53.132;6.370;2023-02-10T03:27:11;59.30;;;14.50;;
51943;SDS011;37969;53.132;6.370;2023-02-10T03:29:38;50.05;;;12.95;;
51943;SDS011;37969;53.132;6.370;2023-02-10T03:32:04;61.30;;;16.38;;
51943;SDS011;37969;53.132;6.370;2023-02-10T03:34:31;64.75;;;16.98;;
51943;SDS011;37969;53.132;6.370;2023-02-10T03:36:57;64.13;;;15.13;;
51943;SDS011;37969;53.132;6.370;2023-02-10T03:39:23;59.63;;;19.25;;
51943;SDS011;37969;53.132;6.370;2023-02-10T03:41:49;60.45;;;17.30;;
51943;SDS011;37969;53.132;6.370;2023-02-10T03:44:15;60.95;;;15.73;;
51943;SDS011;37969;53.132;6.370;2023-02-10T03:46:41;59.78;;;15.13;;
51943;SDS011;37969;53.132;6.370;2023-02-10T03:49:08;57.50;;;15.93;;
51943;SDS011;37969;53.132;6.370;2023-02-10T03:51:34;56.63;;;14.48;;
51943;SDS011;37969;53.132;6.370;2023-02-10T03:54:00;58.97;;;16.08;;
51943;SDS011;37969;53.132;6.370;2023-02-10T03:56:26;50.85;;;15.10;;
51943;SDS011;37969;53.132;6.370;2023-02-10T03:58:52;56.08;;;14.98;;
51943;SDS011;37969;53.132;6.370;2023-02-10T04:01:18;61.10;;;16.50;;
51943;SDS011;37969;53.132;6.370;2023-02-10T04:03:44;55.30;;;15.98;;
51943;SDS011;37969;53.132;6.370;2023-02-10T04:06:11;58.08;;;14.25;;
51943;SDS011;37969;53.132;6.370;2023-02-10T04:08:37;53.17;;;14.98;;
51943;SDS011;37969;53.132;6.370;2023-02-10T04:11:04;56.97;;;15.10;;
51943;SDS011;37969;53.132;6.370;2023-02-10T04:13:32;48.03;;;14.40;;
51943;SDS011;37969;53.132;6.370;2023-02-10T04:16:02;61.45;;;15.48;;
51943;SDS011;37969;53.132;6.370;2023-02-10T04:18:29;51.08;;;15.95;;
51943;SDS011;37969;53.132;6.370;2023-02-10T04:20:56;50.38;;;14.07;;
51943;SDS011;37969;53.132;6.370;2023-02-10T04:23:22;61.63;;;15.05;;
51943;SDS011;37969;53.132;6.370;2023-02-10T04:25:48;60.78;;;14.23;;
51943;SDS011;37969;53.132;6.370;2023-02-10T04:28:14;52.35;;;14.38;;
51943;SDS011;37969;53.132;6.370;2023-02-10T04:30:40;53.47;;;15.13;;
51943;SDS011;37969;53.132;6.370;2023-02-10T04:33:06;59.10;;;14.70;;
51943;SDS011;37969;53.132;6.370;2023-02-10T04:35:33;49.70;;;13.65;;
51943;SDS011;37969;53.132;6.370;2023-02-10T04:37:59;59.88;;;13.73;;
51943;SDS011;37969;53.132;6.370;2023-02-10T04:40:28;55.47;;;15.18;;
51943;SDS011;37969;53.132;6.370;2023-02-10T04:42:55;54.60;;;14.20;;
51943;SDS011;37969;53.132;6.370;2023-02-10T04:45:21;47.95;;;14.30;;
51943;SDS011;37969;53.132;6.370;2023-02-10T04:47:47;50.38;;;13.13;;
51943;SDS011;37969;53.132;6.370;2023-02-10T04:50:13;44.08;;;14.00;;
51943;SDS011;37969;53.132;6.370;2023-02-10T04:52:39;59.17;;;13.75;;
51943;SDS011;37969;53.132;6.370;2023-02-10T04:55:05;52.40;;;14.05;;
51943;SDS011;37969;53.132;6.370;2023-02-10T04:57:32;47.22;;;13.32;;
51943;SDS011;37969;53.132;6.370;2023-02-10T04:59:58;59.17;;;15.10;;
51943;SDS011;37969;53.132;6.370;2023-02-10T05:02:24;49.08;;;14.93;;
51943;SDS011;37969;53.132;6.370;2023-02-10T05:04:50;55.80;;;15.60;;
51943;SDS011;37969;53.132;6.370;2023-02-10T05:07:16;50.00;;;13.35;;
51943;SDS011;37969;53.132;6.370;2023-02-10T05:09:42;50.65;;;15.25;;
51943;SDS011;37969;53.132;6.370;2023-02-10T05:12:08;52.55;;;14.75;;
51943;SDS011;37969;53.132;6.370;2023-02-10T05:14:35;50.75;;;14.02;;
51943;SDS011;37969;53.132;6.370;2023-02-10T05:17:01;45.35;;;13.07;;
51943;SDS011;37969;53.132;6.370;2023-02-10T05:19:27;53.40;;;14.80;;
51943;SDS011;37969;53.132;6.370;2023-02-10T05:21:53;51.15;;;14.40;;
51943;SDS011;37969;53.132;6.370;2023-02-10T05:24:19;51.88;;;14.93;;
51943;SDS011;37969;53.132;6.370;2023-02-10T05:26:45;56.72;;;16.20;;
51943;SDS011;37969;53.132;6.370;2023-02-10T05:29:11;50.30;;;16.05;;
51943;SDS011;37969;53.132;6.370;2023-02-10T05:31:38;53.47;;;18.30;;
51943;SDS011;37969;53.132;6.370;2023-02-10T05:34:04;52.63;;;16.67;;
51943;SDS011;37969;53.132;6.370;2023-02-10T05:36:30;58.58;;;18.23;;
51943;SDS011;37969;53.132;6.370;2023-02-10T05:38:56;60.40;;;20.67;;
51943;SDS011;37969;53.132;6.370;2023-02-10T05:41:41;54.22;;;17.25;;
51943;SDS011;37969;53.132;6.370;2023-02-10T05:44:07;56.38;;;16.08;;
51943;SDS011;37969;53.132;6.370;2023-02-10T05:46:33;68.75;;;17.52;;
51943;SDS011;37969;53.132;6.370;2023-02-10T05:48:59;67.75;;;18.35;;
51943;SDS011;37969;53.132;6.370;2023-02-10T05:51:25;57.72;;;19.63;;
51943;SDS011;37969;53.132;6.370;2023-02-10T05:53:51;53.22;;;17.35;;
51943;SDS011;37969;53.132;6.370;2023-02-10T05:56:19;71.50;;;19.77;;
51943;SDS011;37969;53.132;6.370;2023-02-10T05:58:45;62.25;;;19.95;;
51943;SDS011;37969;53.132;6.370;2023-02-10T06:01:11;59.25;;;18.67;;
51943;SDS011;37969;53.132;6.370;2023-02-10T06:03:37;54.17;;;18.10;;
51943;SDS011;37969;53.132;6.370;2023-02-10T06:06:03;42.65;;;16.98;;
51943;SDS011;37969;53.132;6.370;2023-02-10T06:08:30;51.30;;;18.30;;
51943;SDS011;37969;53.132;6.370;2023-02-10T06:10:56;67.65;;;20.42;;
51943;SDS011;37969;53.132;6.370;2023-02-10T06:13:22;62.60;;;19.60;;
51943;SDS011;37969;53.132;6.370;2023-02-10T06:15:48;58.42;;;20.63;;
51943;SDS011;37969;53.132;6.370;2023-02-10T06:18:14;71.95;;;22.17;;
51943;SDS011;37969;53.132;6.370;2023-02-10T06:20:40;60.35;;;20.10;;
51943;SDS011;37969;53.132;6.370;2023-02-10T06:23:07;66.15;;;21.77;;
51943;SDS011;37969;53.132;6.370;2023-02-10T06:25:33;65.20;;;21.50;;
51943;SDS011;37969;53.132;6.370;2023-02-10T06:28:00;59.40;;;19.80;;
51943;SDS011;37969;53.132;6.370;2023-02-10T06:30:27;68.75;;;19.70;;
51943;SDS011;37969;53.132;6.370;2023-02-10T06:32:53;65.00;;;21.15;;
51943;SDS011;37969;53.132;6.370;2023-02-10T06:35:19;69.13;;;22.02;;
51943;SDS011;37969;53.132;6.370;2023-02-10T06:37:45;58.92;;;21.45;;
51943;SDS011;37969;53.132;6.370;2023-02-10T06:40:11;62.10;;;21.92;;
51943;SDS011;37969;53.132;6.370;2023-02-10T06:42:38;70.40;;;24.67;;
51943;SDS011;37969;53.132;6.370;2023-02-10T06:45:05;78.03;;;23.92;;
51943;SDS011;37969;53.132;6.370;2023-02-10T06:47:33;70.63;;;23.73;;
51943;SDS011;37969;53.132;6.370;2023-02-10T06:50:00;71.43;;;23.60;;
51943;SDS011;37969;53.132;6.370;2023-02-10T06:52:26;63.75;;;24.50;;
51943;SDS011;37969;53.132;6.370;2023-02-10T06:54:52;60.38;;;25.95;;
51943;SDS011;37969;53.132;6.370;2023-02-10T06:57:18;77.15;;;25.55;;
51943;SDS011;37969;53.132;6.370;2023-02-10T06:59:44;69.28;;;24.45;;
51943;SDS011;37969;53.132;6.370;2023-02-10T07:02:11;61.10;;;24.38;;
51943;SDS011;37969;53.132;6.370;2023-02-10T07:04:37;83.05;;;24.33;;
51943;SDS011;37969;53.132;6.370;2023-02-10T07:07:04;79.93;;;25.83;;
51943;SDS011;37969;53.132;6.370;2023-02-10T07:09:30;74.40;;;25.52;;
51943;SDS011;37969;53.132;6.370;2023-02-10T07:11:57;67.82;;;24.83;;
51943;SDS011;37969;53.132;6.370;2023-02-10T07:14:23;73.80;;;28.38;;
51943;SDS011;37969;53.132;6.370;2023-02-10T07:16:49;72.82;;;26.50;;
51943;SDS011;37969;53.132;6.370;2023-02-10T07:19:16;68.63;;;25.75;;
51943;SDS011;37969;53.132;6.370;2023-02-10T07:21:42;66.22;;;23.45;;
51943;SDS011;37969;53.132;6.370;2023-02-10T07:24:08;71.45;;;27.10;;
51943;SDS011;37969;53.132;6.370;2023-02-10T07:26:35;78.50;;;27.60;;
51943;SDS011;37969;53.132;6.370;2023-02-10T07:29:01;65.55;;;24.75;;
51943;SDS011;37969;53.132;6.370;2023-02-10T07:31:27;73.90;;;25.38;;
51943;SDS011;37969;53.132;6.370;2023-02-10T07:33:53;73.22;;;27.77;;
51943;SDS011;37969;53.132;6.370;2023-02-10T07:36:20;76.47;;;27.92;;
51943;SDS011;37969;53.132;6.370;2023-02-10T07:38:46;66.90;;;25.60;;
51943;SDS011;37969;53.132;6.370;2023-02-10T07:41:12;62.50;;;25.50;;
51943;SDS011;37969;53.132;6.370;2023-02-10T07:43:38;69.63;;;26.00;;
51943;SDS011;37969;53.132;6.370;2023-02-10T07:46:04;79.22;;;25.92;;
51943;SDS011;37969;53.132;6.370;2023-02-10T07:48:31;68.40;;;24.50;;
51943;SDS011;37969;53.132;6.370;2023-02-10T07:50:57;62.47;;;24.85;;
51943;SDS011;37969;53.132;6.370;2023-02-10T07:53:23;53.05;;;26.13;;
51943;SDS011;37969;53.132;6.370;2023-02-10T07:55:49;84.10;;;29.30;;
51943;SDS011;37969;53.132;6.370;2023-02-10T07:58:15;67.85;;;26.80;;
51943;SDS011;37969;53.132;6.370;2023-02-10T08:00:42;65.38;;;24.80;;
51943;SDS011;37969;53.132;6.370;2023-02-10T08:03:11;61.63;;;23.52;;
51943;SDS011;37969;53.132;6.370;2023-02-10T08:08:04;56.95;;;20.95;;
51943;SDS011;37969;53.132;6.370;2023-02-10T08:10:30;56.17;;;22.42;;
51943;SDS011;37969;53.132;6.370;2023-02-10T08:12:56;53.38;;;20.85;;
51943;SDS011;37969;53.132;6.370;2023-02-10T08:15:22;47.92;;;20.77;;
51943;SDS011;37969;53.132;6.370;2023-02-10T08:17:50;62.30;;;22.10;;
51943;SDS011;37969;53.132;6.370;2023-02-10T08:20:16;56.78;;;21.38;;
51943;SDS011;37969;53.132;6.370;2023-02-10T08:22:42;59.53;;;22.10;;
51943;SDS011;37969;53.132;6.370;2023-02-10T08:25:09;63.08;;;21.67;;
51943;SDS011;37969;53.132;6.370;2023-02-10T08:27:35;57.25;;;22.33;;
51943;SDS011;37969;53.132;6.370;2023-02-10T08:30:02;49.92;;;20.85;;
51943;SDS011;37969;53.132;6.370;2023-02-10T08:32:30;48.83;;;19.55;;
51943;SDS011;37969;53.132;6.370;2023-02-10T08:34:57;67.00;;;22.77;;
51943;SDS011;37969;53.132;6.370;2023-02-10T08:37:25;60.60;;;22.52;;
51943;SDS011;37969;53.132;6.370;2023-02-10T08:39:51;44.65;;;21.42;;
51943;SDS011;37969;53.132;6.370;2023-02-10T08:42:17;59.30;;;21.17;;
51943;SDS011;37969;53.132;6.370;2023-02-10T08:44:44;54.13;;;21.77;;
51943;SDS011;37969;53.132;6.370;2023-02-10T08:47:10;54.40;;;22.17;;
51943;SDS011;37969;53.132;6.370;2023-02-10T08:49:39;46.55;;;21.98;;
51943;SDS011;37969;53.132;6.370;2023-02-10T08:52:06;56.15;;;22.73;;
51943;SDS011;37969;53.132;6.370;2023-02-10T08:54:32;50.83;;;21.77;;
51943;SDS011;37969;53.132;6.370;2023-02-10T08:56:58;50.78;;;20.08;;
51943;SDS011;37969;53.132;6.370;2023-02-10T08:59:25;45.50;;;20.63;;
51943;SDS011;37969;53.132;6.370;2023-02-10T09:01:51;50.75;;;23.05;;
51943;SDS011;37969;53.132;6.370;2023-02-10T09:04:18;53.53;;;22.50;;
51943;SDS011;37969;53.132;6.370;2023-02-10T09:06:44;45.88;;;21.83;;
51943;SDS011;37969;53.132;6.370;2023-02-10T09:09:11;47.63;;;21.05;;
51943;SDS011;37969;53.132;6.370;2023-02-10T09:11:38;48.30;;;20.98;;
51943;SDS011;37969;53.132;6.370;2023-02-10T09:14:04;44.40;;;21.10;;
51943;SDS011;37969;53.132;6.370;2023-02-10T09:16:30;49.10;;;21.38;;
51943;SDS011;37969;53.132;6.370;2023-02-10T09:18:56;44.90;;;21.00;;
51943;SDS011;37969;53.132;6.370;2023-02-10T09:21:23;40.78;;;19.98;;
51943;SDS011;37969;53.132;6.370;2023-02-10T09:23:50;48.20;;;19.85;;
51943;SDS011;37969;53.132;6.370;2023-02-10T09:26:16;48.72;;;19.52;;
51943;SDS011;37969;53.132;6.370;2023-02-10T09:28:42;39.80;;;18.05;;
51943;SDS011;37969;53.132;6.370;2023-02-10T09:31:10;49.47;;;20.80;;
51943;SDS011;37969;53.132;6.370;2023-02-10T09:33:37;50.55;;;19.23;;
51943;SDS011;37969;53.132;6.370;2023-02-10T09:36:04;48.53;;;18.88;;
51943;SDS011;37969;53.132;6.370;2023-02-10T09:38:31;44.55;;;17.60;;
51943;SDS011;37969;53.132;6.370;2023-02-10T09:41:17;47.47;;;16.23;;
51943;SDS011;37969;53.132;6.370;2023-02-10T09:51:37;43.75;;;18.10;;
51943;SDS011;37969;53.132;6.370;2023-02-10T09:54:08;40.20;;;17.20;;
51943;SDS011;37969;53.132;6.370;2023-02-10T09:56:37;44.83;;;17.40;;
51943;SDS011;37969;53.132;6.370;2023-02-10T09:59:05;40.85;;;17.42;;
51943;SDS011;37969;53.132;6.370;2023-02-10T10:01:34;45.67;;;18.33;;
51943;SDS011;37969;53.132;6.370;2023-02-10T10:04:04;48.00;;;18.58;;
51943;SDS011;37969;53.132;6.370;2023-02-10T10:06:32;44.28;;;18.55;;
51943;SDS011;37969;53.132;6.370;2023-02-10T10:09:01;42.67;;;18.85;;
51943;SDS011;37969;53.132;6.370;2023-02-10T10:11:38;44.72;;;17.80;;
51943;SDS011;37969;53.132;6.370;2023-02-10T10:14:12;42.28;;;17.17;;
51943;SDS011;37969;53.132;6.370;2023-02-10T10:21:38;40.83;;;15.50;;
51943;SDS011;37969;53.132;6.370;2023-02-10T10:29:29;41.23;;;15.70;;
51943;SDS011;37969;53.132;6.370;2023-02-10T10:32:02;45.50;;;15.57;;
51943;SDS011;37969;53.132;6.370;2023-02-10T10:34:33;43.88;;;16.35;;
51943;SDS011;37969;53.132;6.370;2023-02-10T10:37:01;36.97;;;13.82;;
51943;SDS011;37969;53.132;6.370;2023-02-10T10:41:59;47.08;;;16.00;;
51943;SDS011;37969;53.132;6.370;2023-02-10T10:44:25;39.95;;;15.15;;
51943;SDS011;37969;53.132;6.370;2023-02-10T10:47:05;40.85;;;13.93;;
51943;SDS011;37969;53.132;6.370;2023-02-10T10:49:34;50.15;;;15.80;;
51943;SDS011;37969;53.132;6.370;2023-02-10T10:52:01;36.22;;;15.15;;
51943;SDS011;37969;53.132;6.370;2023-02-10T10:54:27;42.75;;;13.50;;
51943;SDS011;37969;53.132;6.370;2023-02-10T10:56:56;34.40;;;13.75;;
51943;SDS011;37969;53.132;6.370;2023-02-10T10:59:27;36.33;;;12.95;;
51943;SDS011;37969;53.132;6.370;2023-02-10T11:01:55;36.38;;;14.57;;
51943;SDS011;37969;53.132;6.370;2023-02-10T11:04:22;36.83;;;14.20;;
51943;SDS011;37969;53.132;6.370;2023-02-10T11:06:50;36.00;;;13.73;;
51943;SDS011;37969;53.132;6.370;2023-02-10T11:09:19;32.17;;;11.93;;
51943;SDS011;37969;53.132;6.370;2023-02-10T11:11:46;38.40;;;10.98;;
51943;SDS011;37969;53.132;6.370;2023-02-10T11:14:16;33.47;;;11.57;;
51943;SDS011;37969;53.132;6.370;2023-02-10T11:16:44;37.30;;;11.38;;
51943;SDS011;37969;53.132;6.370;2023-02-10T11:19:18;38.88;;;12.98;;
51943;SDS011;37969;53.132;6.370;2023-02-10T11:21:44;31.13;;;10.85;;
51943;SDS011;37969;53.132;6.370;2023-02-10T11:24:15;35.58;;;11.00;;
51943;SDS011;37969;53.132;6.370;2023-02-10T11:26:52;33.20;;;9.98;;
51943;SDS011;37969;53.132;6.370;2023-02-10T11:29:18;26.70;;;10.88;;
51943;SDS011;37969;53.132;6.370;2023-02-10T11:31:44;26.13;;;10.30;;
51943;SDS011;37969;53.132;6.370;2023-02-10T11:34:17;26.08;;;9.82;;
51943;SDS011;37969;53.132;6.370;2023-02-10T11:36:45;36.22;;;11.18;;
51943;SDS011;37969;53.132;6.370;2023-02-10T11:39:16;43.55;;;12.98;;
51943;SDS011;37969;53.132;6.370;2023-02-10T11:41:45;38.90;;;9.65;;
51943;SDS011;37969;53.132;6.370;2023-02-10T11:44:20;26.88;;;9.15;;
51943;SDS011;37969;53.132;6.370;2023-02-10T11:46:55;30.58;;;9.30;;
51943;SDS011;37969;53.132;6.370;2023-02-10T11:49:21;27.25;;;8.52;;
51943;SDS011;37969;53.132;6.370;2023-02-10T11:51:54;31.80;;;9.15;;
51943;SDS011;37969;53.132;6.370;2023-02-10T11:54:20;30.73;;;9.20;;
51943;SDS011;37969;53.132;6.370;2023-02-10T11:56:50;32.33;;;9.00;;
51943;SDS011;37969;53.132;6.370;2023-02-10T11:59:48;38.53;;;10.35;;
51943;SDS011;37969;53.132;6.370;2023-02-10T12:02:18;30.23;;;9.38;;
51943;SDS011;37969;53.132;6.370;2023-02-10T12:07:24;24.05;;;7.57;;
51943;SDS011;37969;53.132;6.370;2023-02-10T12:09:53;22.95;;;8.15;;
51943;SDS011;37969;53.132;6.370;2023-02-10T12:14:57;22.45;;;7.07;;
51943;SDS011;37969;53.132;6.370;2023-02-10T12:20:15;24.33;;;7.43;;
51943;SDS011;37969;53.132;6.370;2023-02-10T12:27:44;26.02;;;7.07;;
51943;SDS011;37969;53.132;6.370;2023-02-10T12:30:22;21.63;;;7.25;;
51943;SDS011;37969;53.132;6.370;2023-02-10T12:32:57;19.42;;;7.57;;
51943;SDS011;37969;53.132;6.370;2023-02-10T12:38:21;21.15;;;6.78;;
51943;SDS011;37969;53.132;6.370;2023-02-10T12:41:06;24.73;;;7.00;;
51943;SDS011;37969;53.132;6.370;2023-02-10T12:43:40;21.02;;;5.32;;
51943;SDS011;37969;53.132;6.370;2023-02-10T12:49:06;22.55;;;6.35;;
51943;SDS011;37969;53.132;6.370;2023-02-10T12:59:10;28.08;;;6.72;;
51943;SDS011;37969;53.132;6.370;2023-02-10T13:01:40;23.55;;;7.20;;
51943;SDS011;37969;53.132;6.370;2023-02-10T13:04:14;21.60;;;5.82;;
51943;SDS011;37969;53.132;6.370;2023-02-10T13:06:44;24.75;;;6.78;;
51943;SDS011;37969;53.132;6.370;2023-02-10T13:11:41;22.63;;;5.40;;
51943;SDS011;37969;53.132;6.370;2023-02-10T13:14:12;23.38;;;5.93;;
51943;SDS011;37969;53.132;6.370;2023-02-10T13:16:39;22.63;;;5.03;;
51943;SDS011;37969;53.132;6.370;2023-02-10T13:19:21;20.13;;;5.53;;
51943;SDS011;37969;53.132;6.370;2023-02-10T13:21:56;27.67;;;7.47;;
51943;SDS011;37969;53.132;6.370;2023-02-10T13:24:26;23.35;;;6.40;;
51943;SDS011;37969;53.132;6.370;2023-02-10T13:29:36;18.33;;;5.10;;
51943;SDS011;37969;53.132;6.370;2023-02-10T13:32:13;17.40;;;4.88;;
51943;SDS011;37969;53.132;6.370;2023-02-10T13:34:42;22.85;;;5.22;;
51943;SDS011;37969;53.132;6.370;2023-02-10T13:37:16;29.27;;;5.72;;
51943;SDS011;37969;53.132;6.370;2023-02-10T13:39:48;22.10;;;5.50;;
51943;SDS011;37969;53.132;6.370;2023-02-10T13:42:24;20.83;;;5.03;;
51943;SDS011;37969;53.132;6.370;2023-02-10T13:45:01;13.57;;;3.92;;
51943;SDS011;37969;53.132;6.370;2023-02-10T13:47:32;17.67;;;4.50;;
51943;SDS011;37969;53.132;6.370;2023-02-10T13:50:00;23.33;;;6.70;;
51943;SDS011;37969;53.132;6.370;2023-02-10T13:52:28;20.98;;;4.00;;
51943;SDS011;37969;53.132;6.370;2023-02-10T13:57:26;19.67;;;4.50;;
51943;SDS011;37969;53.132;6.370;2023-02-10T13:59:52;22.33;;;5.43;;
51943;SDS011;37969;53.132;6.370;2023-02-10T14:02:21;23.50;;;5.57;;
51943;SDS011;37969;53.132;6.370;2023-02-10T14:04:49;18.50;;;4.90;;
51943;SDS011;37969;53.132;6.370;2023-02-10T14:07:30;16.45;;;4.95;;
51943;SDS011;37969;53.132;6.370;2023-02-10T14:10:02;19.75;;;5.47;;
51943;SDS011;37969;53.132;6.370;2023-02-10T14:12:30;21.85;;;5.55;;
51943;SDS011;37969;53.132;6.370;2023-02-10T14:15:12;25.27;;;5.45;;
51943;SDS011;37969;53.132;6.370;2023-02-10T14:17:51;22.70;;;5.15;;
51943;SDS011;37969;53.132;6.370;2023-02-10T14:20:23;22.00;;;5.53;;
51943;SDS011;37969;53.132;6.370;2023-02-10T14:22:50;19.27;;;5.63;;
51943;SDS011;37969;53.132;6.370;2023-02-10T14:25:18;13.50;;;5.07;;
51943;SDS011;37969;53.132;6.370;2023-02-10T14:27:52;21.27;;;5.50;;
51943;SDS011;37969;53.132;6.370;2023-02-10T14:30:31;18.10;;;5.25;;
51943;SDS011;37969;53.132;6.370;2023-02-10T14:32:59;19.13;;;5.10;;
51943;SDS011;37969;53.132;6.370;2023-02-10T14:35:25;33.20;;;5.63;;
51943;SDS011;37969;53.132;6.370;2023-02-10T14:37:54;27.35;;;5.90;;
51943;SDS011;37969;53.132;6.370;2023-02-10T14:40:21;22.77;;;5.32;;
51943;SDS011;37969;53.132;6.370;2023-02-10T14:42:48;22.92;;;5.90;;
51943;SDS011;37969;53.132;6.370;2023-02-10T14:45:22;24.10;;;6.25;;
51943;SDS011;37969;53.132;6.370;2023-02-10T14:47:49;24.83;;;6.65;;
51943;SDS011;37969;53.132;6.370;2023-02-10T14:50:26;19.08;;;5.63;;
51943;SDS011;37969;53.132;6.370;2023-02-10T14:52:52;21.40;;;6.90;;
51943;SDS011;37969;53.132;6.370;2023-02-10T14:55:23;23.27;;;6.55;;
51943;SDS011;37969;53.132;6.370;2023-02-10T14:57:49;24.65;;;6.10;;
51943;SDS011;37969;53.132;6.370;2023-02-10T15:00:16;23.15;;;6.55;;
51943;SDS011;37969;53.132;6.370;2023-02-10T15:02:45;24.15;;;6.20;;
51943;SDS011;37969;53.132;6.370;2023-02-10T15:05:16;22.83;;;6.65;;
51943;SDS011;37969;53.132;6.370;2023-02-10T15:07:44;19.15;;;6.72;;
51943;SDS011;37969;53.132;6.370;2023-02-10T15:10:15;22.42;;;6.07;;
51943;SDS011;37969;53.132;6.370;2023-02-10T15:12:45;22.23;;;6.35;;
51943;SDS011;37969;53.132;6.370;2023-02-10T15:17:43;28.95;;;6.40;;
51943;SDS011;37969;53.132;6.370;2023-02-10T15:27:55;24.92;;;8.63;;
51943;SDS011;37969;53.132;6.370;2023-02-10T15:30:23;23.05;;;7.93;;
51943;SDS011;37969;53.132;6.370;2023-02-10T15:32:51;29.45;;;7.13;;
51943;SDS011;37969;53.132;6.370;2023-02-10T15:35:17;25.30;;;8.30;;
51943;SDS011;37969;53.132;6.370;2023-02-10T15:37:48;24.52;;;8.23;;
51943;SDS011;37969;53.132;6.370;2023-02-10T15:40:16;22.15;;;8.82;;
51943;SDS011;37969;53.132;6.370;2023-02-10T15:42:42;23.60;;;8.00;;
51943;SDS011;37969;53.132;6.370;2023-02-10T15:45:11;21.70;;;7.50;;
51943;SDS011;37969;53.132;6.370;2023-02-10T15:47:42;19.48;;;7.95;;
51943;SDS011;37969;53.132;6.370;2023-02-10T15:50:10;27.52;;;8.65;;
51943;SDS011;37969;53.132;6.370;2023-02-10T15:52:40;23.08;;;8.15;;